Time;durP1;ratioP1;P1;durP2;ratioP2;P2;SDS_P1;SDS_P2;PMS_P1;PMS_P2;Temp;Humidity;BMP_temperature;BMP_pressure;BME280_temperature;BME280_humidity;BME280_pressure;Samples;Min_cycle;Max_cycle;Signal;HPM_P1;HPM_P2
2021/07/08 00:00:49;;;;;;;;;;;;;;;27.34;43.29;100342.50;5092920;28;19920;-78
2021/07/08 00:03:17;;;;;;;;;;;;;;;27.25;43.31;100342.84;5093054;28;19926;-78
2021/07/08 00:05:45;;;;;;;;;;;;;;;27.24;43.22;100352.09;5092878;28;19924;-79
2021/07/08 00:08:14;;;;;;;;;;;;;;;27.34;42.90;100344.38;5093303;28;20457;-81
2021/07/08 00:10:45;;;;;;;;;;;;;;;27.25;43.11;100348.31;5092877;28;20297;-78
2021/07/08 00:13:13;;;;;;;;;;;;;;;27.45;42.67;100345.72;5093407;28;20390;-77
2021/07/08 00:15:41;;;;;;;;;;;;;;;27.41;42.82;100338.94;5092613;28;20325;-79
2021/07/08 00:18:10;;;;;;;;;;;;;;;27.25;43.12;100340.94;5092998;28;19946;-79
2021/07/08 00:20:39;;;;;;;;;;;;;;;27.20;43.19;100351.63;5092648;28;19969;-80
2021/07/08 00:23:07;;;;;;;;;;;;;;;27.04;43.68;100363.72;5092928;28;20022;-80
2021/07/08 00:25:35;;;;;;;;;;;;;;;27.02;43.96;100353.97;5092654;28;19920;-81
2021/07/08 00:28:10;;;;;;;;;;;;;;;26.96;44.74;100360.25;5093100;28;20352;-78
2021/07/08 00:30:38;;;;;;;;;;;;;;;26.88;44.64;100365.84;5092654;28;19920;-81
2021/07/08 00:33:06;;;;;;;;;;;;;;;26.78;45.04;100363.44;5093080;28;19950;-82
2021/07/08 00:35:34;;;;;;;;;;;;;;;26.64;45.67;100362.47;5093061;28;19988;-81
2021/07/08 00:38:02;;;;;;;;;;;;;;;26.53;46.02;100355.56;5092985;28;20019;-82
2021/07/08 00:40:30;;;;;;;;;;;;;;;26.48;45.74;100357.22;5092830;28;20386;-74
2021/07/08 00:42:59;;;;;;;;;;;;;;;26.56;45.74;100353.53;5092300;28;19924;-75
2021/07/08 00:45:28;;;;;;;;;;;;;;;26.46;46.22;100359.31;5092705;28;19923;-73
2021/07/08 00:47:57;;;;;;;;;;;;;;;26.43;46.14;100354.19;5093753;28;19931;-75
2021/07/08 00:50:27;;;;;;;;;;;;;;;26.57;45.95;100358.78;5096517;28;19941;-87
2021/07/08 00:52:55;;;;;;;;;;;;;;;26.75;45.49;100359.19;5096205;28;19943;-89
2021/07/08 00:55:23;;;;;;;;;;;;;;;26.56;45.80;100359.84;5096377;28;19920;-89
2021/07/08 00:57:55;;;;;;;;;;;;;;;26.38;46.63;100357.53;5095916;28;19920;-89
2021/07/08 01:00:24;;;;;;;;;;;;;;;26.40;46.52;100360.91;5096664;28;19920;-90
2021/07/08 01:02:54;;;;;;;;;;;;;;;26.50;46.21;100352.41;5096002;28;19919;-82
2021/07/08 01:05:24;;;;;;;;;;;;;;;26.45;46.24;100357.63;5096400;28;19919;-81
2021/07/08 01:07:52;;;;;;;;;;;;;;;26.25;46.89;100363.66;5095692;28;19927;-81
2021/07/08 01:10:20;;;;;;;;;;;;;;;26.33;46.83;100370.03;5096102;28;19950;-81
2021/07/08 01:12:48;;;;;;;;;;;;;;;26.38;46.82;100367.63;5095691;28;19920;-73
2021/07/08 01:15:16;;;;;;;;;;;;;;;26.21;47.29;100367.78;5095585;28;20378;-75
2021/07/08 01:17:45;;;;;;;;;;;;;;;26.08;47.55;100367.63;5095542;28;19926;-74
2021/07/08 01:20:17;;;;;;;;;;;;;;;26.15;47.48;100363.09;5095990;28;19969;-75
2021/07/08 01:22:48;;;;;;;;;;;;;;;26.15;46.92;100368.56;5095245;28;20389;-76
2021/07/08 01:25:18;;;;;;;;;;;;;;;26.41;46.38;100361.75;5095783;28;19920;-77
2021/07/08 01:27:47;;;;;;;;;;;;;;;26.20;47.03;100363.38;5095475;28;19951;-75
2021/07/08 01:30:15;;;;;;;;;;;;;;;26.36;46.45;100356.84;5095609;28;19923;-75
2021/07/08 01:32:44;;;;;;;;;;;;;;;26.34;46.79;100364.38;5095233;28;19920;-75
2021/07/08 01:35:13;;;;;;;;;;;;;;;26.25;46.93;100358.19;5095587;28;19920;-75
2021/07/08 01:37:42;;;;;;;;;;;;;;;26.15;47.35;100357.63;5095061;28;20041;-77
2021/07/08 01:40:13;;;;;;;;;;;;;;;26.08;47.64;100353.97;5095294;28;19947;-76
2021/07/08 01:42:42;;;;;;;;;;;;;;;25.85;48.46;100372.34;5095214;28;19927;-77
2021/07/08 01:45:12;;;;;;;;;;;;;;;25.87;48.43;100351.16;5095309;28;20382;-77
2021/07/08 01:47:42;;;;;;;;;;;;;;;25.75;48.71;100361.69;5095139;28;20382;-77
2021/07/08 01:50:14;;;;;;;;;;;;;;;25.94;47.98;100357.53;5095233;28;19924;-77
2021/07/08 01:52:43;;;;;;;;;;;;;;;25.85;48.51;100364.13;5077338;28;20286;-77
2021/07/08 01:55:13;;;;;;;;;;;;;;;25.88;47.83;100366.53;5094774;28;19923;-76
2021/07/08 01:57:56;;;;;;;;;;;;;;;26.15;47.23;100357.63;5077535;28;20001;-77
2021/07/08 02:00:26;;;;;;;;;;;;;;;26.07;47.35;100365.94;5094229;28;19924;-76
2021/07/08 02:02:56;;;;;;;;;;;;;;;25.88;48.34;100367.38;5095036;28;19979;-77
2021/07/08 02:05:25;;;;;;;;;;;;;;;25.79;48.40;100370.38;5077129;28;19920;-76
2021/07/08 02:07:55;;;;;;;;;;;;;;;25.89;48.54;100365.47;5076910;28;19920;-76
2021/07/08 02:10:25;;;;;;;;;;;;;;;25.88;48.16;100372.81;5094908;28;19920;-76
2021/07/08 02:12:56;;;;;;;;;;;;;;;25.83;48.64;100364.34;5094395;28;19942;-76
2021/07/08 02:15:25;;;;;;;;;;;;;;;25.83;48.51;100360.75;5094708;28;19920;-76
2021/07/08 02:17:56;;;;;;;;;;;;;;;25.60;49.13;100361.66;5094412;28;19920;-76
2021/07/08 02:20:29;;;;;;;;;;;;;;;25.81;47.97;100355.47;5094705;28;19923;-72
2021/07/08 02:22:57;;;;;;;;;;;;;;;25.88;48.39;100358.31;5094465;28;19920;-74
2021/07/08 02:25:27;;;;;;;;;;;;;;;25.75;48.75;100366.31;5094774;28;19920;-72
2021/07/08 02:27:57;;;;;;;;;;;;;;;25.89;48.28;100368.22;5094021;28;19920;-73
2021/07/08 02:30:26;;;;;;;;;;;;;;;25.71;49.17;100365.00;5094695;28;19920;-73
2021/07/08 02:32:56;;;;;;;;;;;;;;;25.57;49.73;100367.47;5094023;28;19969;-72
2021/07/08 02:35:25;;;;;;;;;;;;;;;25.51;49.93;100373.72;5094610;28;19920;-72
2021/07/08 02:37:53;;;;;;;;;;;;;;;25.51;50.17;100379.16;5094050;28;20374;-74
2021/07/08 02:40:23;;;;;;;;;;;;;;;25.42;50.33;100372.09;5094065;28;19920;-73
2021/07/08 02:42:52;;;;;;;;;;;;;;;25.35;50.41;100376.59;5093993;28;19930;-72
2021/07/08 02:45:22;;;;;;;;;;;;;;;25.51;50.04;100378.31;5094472;28;19926;-73
2021/07/08 02:47:50;;;;;;;;;;;;;;;25.44;49.83;100380.94;5093682;28;19924;-74
2021/07/08 02:50:19;;;;;;;;;;;;;;;25.46;50.03;100383.47;5093965;28;19950;-73
2021/07/08 02:52:47;;;;;;;;;;;;;;;25.33;50.56;100384.13;5076240;28;20263;-73
2021/07/08 02:55:16;;;;;;;;;;;;;;;25.36;50.23;100381.00;5094052;28;20014;-74
2021/07/08 02:57:46;;;;;;;;;;;;;;;25.45;50.09;100388.09;5093678;28;20031;-75
2021/07/08 03:00:17;;;;;;;;;;;;;;;25.58;49.49;100385.59;5075604;28;20426;-74
2021/07/08 03:02:45;;;;;;;;;;;;;;;25.41;50.38;100386.78;5093518;28;19919;-76
2021/07/08 03:05:14;;;;;;;;;;;;;;;25.26;50.50;100394.06;5093439;28;20366;-72
2021/07/08 03:07:42;;;;;;;;;;;;;;;25.22;51.12;100399.06;5076010;28;19927;-73
2021/07/08 03:10:13;;;;;;;;;;;;;;;25.42;50.30;100393.94;5093658;28;19969;-75
2021/07/08 03:12:42;;;;;;;;;;;;;;;25.36;50.46;100400.97;5093847;28;19920;-74
2021/07/08 03:15:11;;;;;;;;;;;;;;;25.27;51.30;100395.78;5093127;28;20378;-72
2021/07/08 03:17:41;;;;;;;;;;;;;;;25.14;51.86;100401.84;5093871;28;19924;-74
2021/07/08 03:20:11;;;;;;;;;;;;;;;25.10;51.91;100395.94;5093266;28;19920;-73
2021/07/08 03:22:42;;;;;;;;;;;;;;;25.27;51.66;100401.22;5093870;28;19961;-73
2021/07/08 03:25:11;;;;;;;;;;;;;;;25.38;51.22;100401.66;5093067;28;19977;-73
2021/07/08 03:27:40;;;;;;;;;;;;;;;25.53;50.86;100390.75;5093371;28;19920;-74
2021/07/08 03:30:10;;;;;;;;;;;;;;;25.63;50.47;100391.31;5093393;28;20271;-74
2021/07/08 03:32:38;;;;;;;;;;;;;;;25.75;50.40;100393.63;5093684;28;19920;-76
2021/07/08 03:35:08;;;;;;;;;;;;;;;25.68;50.44;100393.50;5075009;28;20385;-74
2021/07/08 03:37:36;;;;;;;;;;;;;;;25.73;50.55;100390.25;5093365;28;19919;-74
2021/07/08 03:40:05;;;;;;;;;;;;;;;26.01;49.86;100394.03;5092905;28;19920;-74
2021/07/08 03:42:36;;;;;;;;;;;;;;;26.27;49.15;100387.22;5093558;28;19920;-74
2021/07/08 03:45:04;;;;;;;;;;;;;;;26.48;48.96;100385.41;5093002;28;20015;-73
2021/07/08 03:47:32;;;;;;;;;;;;;;;26.86;47.93;100393.41;5093360;28;19926;-74
2021/07/08 03:50:03;;;;;;;;;;;;;;;27.14;47.58;100395.41;5092920;28;19927;-74
2021/07/08 03:52:32;;;;;;;;;;;;;;;27.55;46.64;100392.78;5075065;28;20416;-74
2021/07/08 03:55:00;;;;;;;;;;;;;;;27.89;45.41;100389.25;5092891;28;20282;-74
2021/07/08 03:57:28;;;;;;;;;;;;;;;28.85;43.26;100387.34;5093197;28;20341;-74
2021/07/08 03:59:56;;;;;;;;;;;;;;;29.10;43.08;100392.28;5092897;28;19928;-74
2021/07/08 04:02:24;;;;;;;;;;;;;;;29.14;43.02;100397.13;5093299;28;19920;-74
2021/07/08 04:04:52;;;;;;;;;;;;;;;29.52;42.30;100400.13;5092409;28;20378;-75
2021/07/08 04:07:20;;;;;;;;;;;;;;;29.85;41.11;100408.38;5092897;28;19920;-74
2021/07/08 04:09:49;;;;;;;;;;;;;;;29.99;40.82;100406.41;5093167;28;19920;-74
2021/07/08 04:12:19;;;;;;;;;;;;;;;30.11;40.78;100404.75;5093103;28;20035;-74
2021/07/08 04:14:47;;;;;;;;;;;;;;;30.40;39.78;100402.50;5093053;28;19962;-74
2021/07/08 04:17:15;;;;;;;;;;;;;;;30.16;40.60;100404.94;5092601;28;20014;-80
2021/07/08 04:19:43;;;;;;;;;;;;;;;30.35;40.01;100407.84;5092834;28;19920;-81
2021/07/08 04:22:11;;;;;;;;;;;;;;;30.50;40.00;100402.91;5092823;28;20486;-77
2021/07/08 04:24:39;;;;;;;;;;;;;;;31.08;38.96;100400.06;5096904;28;20011;-77
2021/07/08 04:27:08;;;;;;;;;;;;;;;31.29;38.49;100405.22;5096364;28;19927;-74
2021/07/08 04:29:37;;;;;;;;;;;;;;;31.74;37.79;100406.94;5079102;28;19955;-76
2021/07/08 04:32:05;;;;;;;;;;;;;;;32.13;37.23;100408.47;5096205;28;19926;-75
2021/07/08 04:34:34;;;;;;;;;;;;;;;31.70;37.36;100406.56;5096455;28;20337;-76
2021/07/08 04:37:03;;;;;;;;;;;;;;;31.66;37.37;100405.34;5096294;28;20374;-74
2021/07/08 04:39:31;;;;;;;;;;;;;;;31.80;36.85;100395.88;5096607;28;19926;-74
2021/07/08 04:41:59;;;;;;;;;;;;;;;32.57;35.66;100398.19;5095856;28;19964;-74
2021/07/08 04:44:28;;;;;;;;;;;;;;;32.59;35.37;100407.09;5078006;28;19920;-73
2021/07/08 04:46:56;;;;;;;;;;;;;;;32.57;35.87;100401.81;5095980;28;20294;-74
2021/07/08 04:49:25;;;;;;;;;;;;;;;33.08;35.22;100407.91;5096218;28;19962;-75
2021/07/08 04:51:53;;;;;;;;;;;;;;;33.37;34.13;100412.56;5078131;28;19961;-74
2021/07/08 04:54:21;;;;;;;;;;;;;;;33.25;34.46;100422.72;5096317;28;20026;-69
2021/07/08 04:56:49;;;;;;;;;;;;;;;33.23;34.50;100417.44;5096225;28;19962;-70
2021/07/08 04:59:17;;;;;;;;;;;;;;;33.06;34.55;100419.19;5095592;28;20308;-70
2021/07/08 05:01:46;;;;;;;;;;;;;;;33.64;34.01;100417.66;5096012;28;19920;-71
2021/07/08 05:04:14;;;;;;;;;;;;;;;34.23;32.52;100418.47;5095415;28;19924;-73
2021/07/08 05:06:42;;;;;;;;;;;;;;;33.73;33.26;100421.75;5096060;28;20423;-72
2021/07/08 05:09:10;;;;;;;;;;;;;;;33.53;33.60;100419.31;5095852;28;19968;-71
2021/07/08 05:11:38;;;;;;;;;;;;;;;34.16;32.46;100421.38;5095771;28;19920;-72
2021/07/08 05:14:06;;;;;;;;;;;;;;;34.08;32.42;100430.91;5095302;28;19920;-73
2021/07/08 05:16:34;;;;;;;;;;;;;;;34.63;32.31;100421.28;5096026;28;19927;-71
2021/07/08 05:19:04;;;;;;;;;;;;;;;35.09;30.80;100420.25;5095519;28;19931;-71
2021/07/08 05:21:32;;;;;;;;;;;;;;;34.67;31.93;100431.63;5095783;28;19924;-73
2021/07/08 05:24:03;;;;;;;;;;;;;;;35.15;30.96;100421.22;5095514;28;19981;-77
2021/07/08 05:26:31;;;;;;;;;;;;;;;35.91;29.65;100421.69;5095868;28;20325;-75
2021/07/08 05:28:59;;;;;;;;;;;;;;;35.41;30.32;100422.50;5095158;28;19927;-76
2021/07/08 05:31:27;;;;;;;;;;;;;;;35.67;30.30;100424.59;5095636;28;19974;-74
2021/07/08 05:33:55;;;;;;;;;;;;;;;35.67;30.64;100424.59;5076653;28;20011;-74
2021/07/08 05:36:24;;;;;;;;;;;;;;;35.48;30.91;100428.72;5094993;28;20018;-74
2021/07/08 05:38:52;;;;;;;;;;;;;;;36.59;29.39;100420.41;5095141;28;19930;-78
2021/07/08 05:41:20;;;;;;;;;;;;;;;36.34;29.35;100427.28;5094777;28;20359;-77
2021/07/08 05:43:48;;;;;;;;;;;;;;;35.97;29.88;100426.19;5077056;28;19967;-76
2021/07/08 05:46:19;;;;;;;;;;;;;;;36.44;29.91;100425.75;5095100;28;20268;-77
2021/07/08 05:48:47;;;;;;;;;;;;;;;36.48;29.27;100432.47;5095263;28;19920;-73
2021/07/08 05:51:18;;;;;;;;;;;;;;;36.43;29.71;100430.47;5094801;28;19930;-74
2021/07/08 05:53:47;;;;;;;;;;;;;;;37.50;28.19;100434.44;5095167;28;20016;-75
2021/07/08 05:56:15;;;;;;;;;;;;;;;36.82;28.75;100433.16;5094965;28;19919;-76
2021/07/08 05:58:43;;;;;;;;;;;;;;;37.53;27.78;100437.50;5094851;28;20374;-75
2021/07/08 06:01:11;;;;;;;;;;;;;;;37.73;27.18;100438.78;5094743;28;19927;-74
2021/07/08 06:03:39;;;;;;;;;;;;;;;38.07;27.04;100433.75;5095266;28;19920;-75
2021/07/08 06:06:07;;;;;;;;;;;;;;;38.39;26.08;100436.44;5094948;28;19920;-75
2021/07/08 06:08:35;;;;;;;;;;;;;;;38.62;25.87;100436.00;5095122;28;19926;-74
2021/07/08 06:11:05;;;;;;;;;;;;;;;38.20;26.71;100438.81;5094424;28;20393;-75
2021/07/08 06:13:33;;;;;;;;;;;;;;;38.20;27.09;100433.25;5077294;28;20010;-76
2021/07/08 06:16:01;;;;;;;;;;;;;;;38.42;26.23;100438.72;5094632;28;20328;-76
2021/07/08 06:18:29;;;;;;;;;;;;;;;38.12;27.11;100435.72;5094738;28;19962;-75
2021/07/08 06:20:58;;;;;;;;;;;;;;;38.78;25.78;100430.50;5094964;28;20370;-76
2021/07/08 06:23:26;;;;;;;;;;;;;;;38.71;26.16;100430.78;5094721;28;19920;-75
2021/07/08 06:25:54;;;;;;;;;;;;;;;38.78;26.05;100434.09;5076317;28;20019;-74
2021/07/08 06:28:23;;;;;;;;;;;;;;;39.16;25.79;100432.81;5094280;28;20019;-70
2021/07/08 06:30:51;;;;;;;;;;;;;;;39.39;24.90;100436.22;5094266;28;20280;-71
2021/07/08 06:33:19;;;;;;;;;;;;;;;39.32;25.19;100438.44;5094433;28;19970;-71
2021/07/08 06:35:48;;;;;;;;;;;;;;;39.40;24.70;100435.09;5094339;28;19946;-73
2021/07/08 06:38:16;;;;;;;;;;;;;;;39.44;25.16;100433.41;5094164;28;20033;-74
2021/07/08 06:40:44;;;;;;;;;;;;;;;39.07;25.33;100441.97;5076236;28;19920;-75
2021/07/08 06:43:12;;;;;;;;;;;;;;;39.03;25.55;100435.28;5093951;28;20014;-72
2021/07/08 06:45:42;;;;;;;;;;;;;;;39.13;25.88;100441.75;5093804;28;19919;-76
2021/07/08 06:48:13;;;;;;;;;;;;;;;39.33;24.82;100432.56;5094142;28;19943;-73
2021/07/08 06:50:42;;;;;;;;;;;;;;;39.24;23.82;100441.78;5094079;28;20375;-73
2021/07/08 06:53:10;;;;;;;;;;;;;;;39.05;24.28;100438.63;5093650;28;19927;-78
2021/07/08 06:55:39;;;;;;;;;;;;;;;39.19;23.94;100446.25;5093850;28;19920;-81
2021/07/08 06:58:07;;;;;;;;;;;;;;;38.88;24.26;100444.44;5093382;28;19919;-80
2021/07/08 07:00:37;;;;;;;;;;;;;;;38.29;24.81;100450.31;5094041;28;19920;-81
2021/07/08 07:03:07;;;;;;;;;;;;;;;38.02;25.17;100450.41;5093221;28;19927;-81
2021/07/08 07:05:35;;;;;;;;;;;;;;;37.21;26.23;100447.78;5093597;28;20366;-80
2021/07/08 07:08:03;;;;;;;;;;;;;;;37.31;25.75;100434.00;5094075;28;20309;-80
2021/07/08 07:10:31;;;;;;;;;;;;;;;36.97;26.82;100436.97;5093868;28;19926;-80
2021/07/08 07:13:00;;;;;;;;;;;;;;;36.82;26.62;100438.72;5094144;28;19947;-81
2021/07/08 07:15:29;;;;;;;;;;;;;;;36.57;27.78;100437.31;5093393;28;19959;-80
2021/07/08 07:17:58;;;;;;;;;;;;;;;36.61;27.84;100443.19;5093681;28;20239;-81
2021/07/08 07:20:27;;;;;;;;;;;;;;;36.67;27.87;100442.16;5093305;28;20279;-81
2021/07/08 07:22:55;;;;;;;;;;;;;;;36.80;27.00;100438.97;5093715;28;19920;-81
2021/07/08 07:25:24;;;;;;;;;;;;;;;36.56;27.50;100451.47;5093166;28;20015;-80
2021/07/08 07:27:53;;;;;;;;;;;;;;;36.34;27.98;100452.25;5093629;28;19927;-81
2021/07/08 07:30:22;;;;;;;;;;;;;;;36.31;27.98;100450.00;5093571;28;20324;-81
2021/07/08 07:32:51;;;;;;;;;;;;;;;36.21;28.45;100452.66;5093874;28;19951;-80
2021/07/08 07:35:22;;;;;;;;;;;;;;;36.23;28.23;100453.22;5093296;28;19958;-81
2021/07/08 07:37:52;;;;;;;;;;;;;;;36.30;28.55;100453.06;5093347;28;20427;-81
2021/07/08 07:40:21;;;;;;;;;;;;;;;36.04;28.61;100455.47;5093087;28;19924;-80
2021/07/08 07:42:51;;;;;;;;;;;;;;;36.22;29.03;100448.78;5093391;28;19920;-80
2021/07/08 07:45:20;;;;;;;;;;;;;;;36.03;28.00;100447.38;5092999;28;19920;-81
2021/07/08 07:47:52;;;;;;;;;;;;;;;35.94;27.66;100438.66;5093116;28;19920;-80
2021/07/08 07:50:24;;;;;;;;;;;;;;;36.07;27.83;100443.84;5075578;28;20019;-80
2021/07/08 07:52:55;;;;;;;;;;;;;;;36.21;27.66;100438.78;5075453;28;19920;-81
2021/07/08 07:55:26;;;;;;;;;;;;;;;35.94;28.07;100446.16;5093861;28;19978;-80
2021/07/08 07:57:55;;;;;;;;;;;;;;;35.97;27.48;100437.28;5094554;28;19931;-80
2021/07/08 08:00:23;;;;;;;;;;;;;;;35.76;27.59;100442.50;5096881;28;19958;-80
2021/07/08 08:02:52;;;;;;;;;;;;;;;35.72;27.89;100429.41;5097644;28;20290;-81
2021/07/08 08:05:33;;;;;;;;;;;;;;;35.91;28.03;100432.78;5097185;28;19920;-81
2021/07/08 08:10:49;;;;;;;;;;;;;;;35.75;27.50;100435.28;5097747;28;19927;-80
2021/07/08 08:13:17;;;;;;;;;;;;;;;35.57;28.19;100427.22;5097165;28;19920;-81
2021/07/08 08:15:45;;;;;;;;;;;;;;;35.71;28.26;100434.13;5098078;28;19920;-80
2021/07/08 08:18:16;;;;;;;;;;;;;;;35.81;28.23;100430.66;5097549;28;19920;-79
2021/07/08 08:20:45;;;;;;;;;;;;;;;35.63;27.83;100426.22;5097389;28;19920;-80
2021/07/08 08:23:14;;;;;;;;;;;;;;;35.16;28.42;100429.28;5096945;28;19966;-79
2021/07/08 08:25:42;;;;;;;;;;;;;;;35.33;28.44;100431.22;5096905;28;19973;-80
2021/07/08 08:28:10;;;;;;;;;;;;;;;35.27;28.56;100431.13;5096978;28;19973;-79
2021/07/08 08:30:40;;;;;;;;;;;;;;;35.58;28.02;100423.34;5096971;28;19920;-80
2021/07/08 08:33:08;;;;;;;;;;;;;;;35.52;28.39;100427.16;5096926;28;19920;-81
2021/07/08 08:35:36;;;;;;;;;;;;;;;35.36;28.78;100436.28;5096967;28;19920;-80
2021/07/08 08:38:05;;;;;;;;;;;;;;;35.39;27.90;100442.16;5097208;28;19927;-80
2021/07/08 08:40:34;;;;;;;;;;;;;;;35.47;28.58;100429.81;5096235;28;19919;-80
2021/07/08 08:43:02;;;;;;;;;;;;;;;35.60;28.43;100434.19;5097128;28;19924;-80
2021/07/08 08:45:30;;;;;;;;;;;;;;;35.42;28.36;100429.72;5096718;28;20320;-80
2021/07/08 08:48:02;;;;;;;;;;;;;;;35.58;28.03;100428.06;5096775;28;19969;-80
2021/07/08 08:50:31;;;;;;;;;;;;;;;35.70;28.00;100442.66;5096305;28;19920;-80
2021/07/08 08:52:59;;;;;;;;;;;;;;;35.79;28.12;100443.94;5096428;28;19924;-80
2021/07/08 08:55:27;;;;;;;;;;;;;;;35.80;28.28;100445.59;5078559;28;19920;-80
2021/07/08 08:57:56;;;;;;;;;;;;;;;35.72;27.92;100434.97;5096251;28;19928;-81
2021/07/08 09:00:42;;;;;;;;;;;;;;;35.83;28.05;100429.31;5096301;28;19920;-80
2021/07/08 09:03:13;;;;;;;;;;;;;;;35.87;27.71;100445.44;5083397;28;20374;-81
2021/07/08 09:05:42;;;;;;;;;;;;;;;35.78;27.50;100442.25;5096337;28;20428;-81
2021/07/08 09:08:18;;;;;;;;;;;;;;;35.88;27.39;100433.28;5078218;28;19969;-80
2021/07/08 09:11:04;;;;;;;;;;;;;;;36.06;27.75;100444.09;5096316;28;19924;-80
2021/07/08 09:13:53;;;;;;;;;;;;;;;36.04;27.84;100446.28;5095774;28;19934;-80
2021/07/08 09:16:27;;;;;;;;;;;;;;;35.97;27.89;100438.13;5095721;28;19920;-80
2021/07/08 09:18:59;;;;;;;;;;;;;;;36.06;26.71;100441.31;5096212;28;19920;-80
2021/07/08 09:21:28;;;;;;;;;;;;;;;35.91;27.10;100435.56;5095673;28;20302;-81
2021/07/08 09:24:04;;;;;;;;;;;;;;;36.00;26.84;100439.56;5095807;28;19920;-80
2021/07/08 09:26:33;;;;;;;;;;;;;;;35.82;27.28;100441.50;5096327;28;19924;-81
2021/07/08 09:29:06;;;;;;;;;;;;;;;35.71;28.19;100439.66;5077589;28;20014;-80
2021/07/08 09:31:35;;;;;;;;;;;;;;;35.93;27.61;100442.53;5095333;28;20333;-80
2021/07/08 09:34:13;;;;;;;;;;;;;;;36.13;26.58;100430.88;5095685;28;19920;-81
2021/07/08 09:36:41;;;;;;;;;;;;;;;36.13;26.56;100428.94;5095486;28;19931;-80
2021/07/08 09:39:11;;;;;;;;;;;;;;;36.24;26.59;100431.84;5095367;28;20266;-81
2021/07/08 09:41:46;;;;;;;;;;;;;;;36.25;26.35;100434.38;5095414;28;19920;-80
2021/07/08 09:44:26;;;;;;;;;;;;;;;36.06;26.62;100441.31;5095557;28;19981;-80
2021/07/08 09:46:56;;;;;;;;;;;;;;;36.22;27.01;100423.78;5095371;28;19927;-80
2021/07/08 09:49:28;;;;;;;;;;;;;;;35.85;27.01;100424.34;5095476;28;19931;-81
2021/07/08 09:51:56;;;;;;;;;;;;;;;35.89;26.80;100432.19;5095316;28;20344;-80
2021/07/08 09:54:44;;;;;;;;;;;;;;;35.94;26.86;100422.00;5094997;28;20362;-80
2021/07/08 09:57:31;;;;;;;;;;;;;;;36.08;27.05;100414.97;5095288;28;20015;-81
2021/07/08 10:00:00;;;;;;;;;;;;;;;36.10;27.10;100418.34;5077724;28;19943;-80
2021/07/08 10:02:29;;;;;;;;;;;;;;;36.27;26.59;100420.22;5077398;28;19959;-80
2021/07/08 10:04:57;;;;;;;;;;;;;;;36.34;26.73;100416.16;5095783;28;20332;-80
2021/07/08 10:07:26;;;;;;;;;;;;;;;36.29;26.79;100413.34;5094704;28;19920;-80
2021/07/08 10:09:54;;;;;;;;;;;;;;;35.66;27.34;100413.78;5094892;28;19927;-81
2021/07/08 10:12:23;;;;;;;;;;;;;;;36.11;26.89;100410.88;5094501;28;20450;-80
2021/07/08 10:14:52;;;;;;;;;;;;;;;36.40;26.89;100406.84;5095023;28;19923;-80
2021/07/08 10:17:21;;;;;;;;;;;;;;;36.47;26.89;100414.13;5094664;28;19920;-80
2021/07/08 10:19:52;;;;;;;;;;;;;;;36.22;26.46;100412.69;5094410;28;20347;-81
2021/07/08 10:22:21;;;;;;;;;;;;;;;36.21;26.78;100413.78;5094327;28;20356;-81
2021/07/08 10:24:50;;;;;;;;;;;;;;;36.48;26.66;100411.09;5094834;28;19924;-81
2021/07/08 10:27:18;;;;;;;;;;;;;;;36.54;26.83;100403.66;5095227;28;19923;-80
2021/07/08 10:29:47;;;;;;;;;;;;;;;36.71;26.29;100404.41;5095261;28;19920;-81
2021/07/08 10:32:15;;;;;;;;;;;;;;;36.89;25.98;100408.81;5095330;28;19981;-80
2021/07/08 10:34:45;;;;;;;;;;;;;;;36.48;26.53;100401.91;5094313;28;19920;-80
2021/07/08 10:37:22;;;;;;;;;;;;;;;36.32;26.62;100396.16;5076914;28;20006;-81
2021/07/08 10:39:49;;;;;;;;;;;;;;;36.40;26.79;100395.72;5094663;28;20336;-80
2021/07/08 10:42:40;;;;;;;;;;;;;;;36.48;26.48;100393.56;5094353;28;20011;-81
2021/07/08 10:45:08;;;;;;;;;;;;;;;36.62;26.04;100401.25;5094246;28;20294;-81
2021/07/08 10:47:41;;;;;;;;;;;;;;;36.66;26.22;100390.44;5093831;28;19966;-80
2021/07/08 10:50:24;;;;;;;;;;;;;;;36.67;25.45;100394.91;5094573;28;20030;-80
2021/07/08 10:52:54;;;;;;;;;;;;;;;36.72;25.83;100394.97;5091715;28;19926;-80
2021/07/08 10:55:38;;;;;;;;;;;;;;;36.87;25.88;100397.13;5076095;28;19920;-80
2021/07/08 10:58:07;;;;;;;;;;;;;;;36.74;25.69;100391.94;5094344;28;19927;-81
2021/07/08 11:00:43;;;;;;;;;;;;;;;36.90;25.95;100389.09;5093999;28;19920;-81
2021/07/08 11:03:26;;;;;;;;;;;;;;;36.93;25.46;100391.34;5093893;28;20013;-80
2021/07/08 11:05:55;;;;;;;;;;;;;;;36.99;25.32;100388.63;5093977;28;19920;-80
2021/07/08 11:08:42;;;;;;;;;;;;;;;37.12;25.32;100393.75;5093545;28;19931;-78
2021/07/08 11:11:11;;;;;;;;;;;;;;;37.10;25.18;100385.66;5093855;28;20286;-81
2021/07/08 11:13:39;;;;;;;;;;;;;;;37.17;25.00;100385.47;5093475;28;19920;-81
2021/07/08 11:16:07;;;;;;;;;;;;;;;36.99;24.82;100385.84;5093616;28;20360;-81
2021/07/08 11:18:36;;;;;;;;;;;;;;;36.69;25.38;100374.13;5093538;28;19920;-81
2021/07/08 11:21:04;;;;;;;;;;;;;;;36.89;25.19;100365.19;5093869;28;19919;-80
2021/07/08 11:23:40;;;;;;;;;;;;;;;36.35;25.98;100365.09;5093601;28;19920;-80
2021/07/08 11:26:09;;;;;;;;;;;;;;;36.52;25.55;100364.19;5075671;28;19924;-80
2021/07/08 11:28:41;;;;;;;;;;;;;;;36.65;25.36;100361.84;5093750;28;19977;-80
2021/07/08 11:31:09;;;;;;;;;;;;;;;36.90;25.32;100363.25;5075749;28;19942;-80
2021/07/08 11:33:39;;;;;;;;;;;;;;;36.91;25.21;100365.75;5093678;28;19974;-80
2021/07/08 11:36:10;;;;;;;;;;;;;;;36.90;25.03;100369.63;5093374;28;19969;-81
2021/07/08 11:38:41;;;;;;;;;;;;;;;36.75;25.21;100363.88;5093745;28;20019;-81
2021/07/08 11:41:10;;;;;;;;;;;;;;;36.77;24.85;100353.34;5093580;28;20335;-80
2021/07/08 11:43:39;;;;;;;;;;;;;;;36.86;24.76;100353.72;5093308;28;19930;-81
2021/07/08 11:46:09;;;;;;;;;;;;;;;36.85;24.88;100352.91;5093495;28;19944;-81
2021/07/08 11:48:39;;;;;;;;;;;;;;;36.69;25.61;100351.88;5074977;28;19924;-80
2021/07/08 11:51:14;;;;;;;;;;;;;;;36.71;25.55;100342.44;5093582;28;19924;-81
2021/07/08 11:53:43;;;;;;;;;;;;;;;36.59;25.70;100346.22;5093030;28;19920;-80
2021/07/08 11:56:12;;;;;;;;;;;;;;;36.62;26.03;100344.84;5093240;28;19920;-80
2021/07/08 11:58:41;;;;;;;;;;;;;;;36.75;25.76;100351.91;5093188;28;20402;-80
2021/07/08 12:01:12;;;;;;;;;;;;;;;36.86;25.51;100349.00;5093581;28;19920;-80
2021/07/08 12:03:40;;;;;;;;;;;;;;;36.61;25.91;100338.47;5093530;28;19973;-80
2021/07/08 12:06:12;;;;;;;;;;;;;;;36.24;26.59;100327.19;5093294;28;19927;-80
2021/07/08 12:08:42;;;;;;;;;;;;;;;36.20;26.42;100327.97;5093195;28;20305;-79
2021/07/08 12:11:13;;;;;;;;;;;;;;;36.40;25.94;100334.63;5093628;28;20012;-80
2021/07/08 12:13:49;;;;;;;;;;;;;;;36.61;26.01;100332.06;5093553;28;19920;-80
2021/07/08 12:16:19;;;;;;;;;;;;;;;36.81;25.29;100331.44;5093138;28;20385;-80
2021/07/08 12:18:48;;;;;;;;;;;;;;;36.74;24.87;100331.63;5092960;28;20341;-80
2021/07/08 12:21:17;;;;;;;;;;;;;;;36.68;24.92;100327.16;5093059;28;20262;-80
2021/07/08 12:23:46;;;;;;;;;;;;;;;36.68;25.12;100324.38;5093314;28;19920;-80
2021/07/08 12:26:26;;;;;;;;;;;;;;;36.84;24.82;100323.44;5093485;28;20007;-80
2021/07/08 12:29:12;;;;;;;;;;;;;;;36.82;25.31;100314.50;5093289;28;19923;-80
2021/07/08 12:31:46;;;;;;;;;;;;;;;36.74;25.13;100308.56;5092964;28;19927;-80
2021/07/08 12:34:17;;;;;;;;;;;;;;;37.02;25.32;100308.31;5092973;28;19920;-81
2021/07/08 12:36:45;;;;;;;;;;;;;;;37.00;25.05;100306.91;5092766;28;19967;-81
2021/07/08 12:39:15;;;;;;;;;;;;;;;36.91;25.10;100301.81;5093331;28;20294;-80
2021/07/08 12:41:45;;;;;;;;;;;;;;;36.86;25.14;100300.91;5092944;28;19920;-81
2021/07/08 12:44:13;;;;;;;;;;;;;;;36.90;25.04;100291.81;5094665;28;19920;-81
2021/07/08 12:46:42;;;;;;;;;;;;;;;37.01;24.93;100284.38;5096605;28;19920;-81
2021/07/08 12:49:14;;;;;;;;;;;;;;;37.12;25.24;100282.53;5096763;28;20384;-81
2021/07/08 12:51:43;;;;;;;;;;;;;;;37.24;24.90;100292.34;5096922;28;19920;-80